Time;durP1;ratioP1;P1;durP2;ratioP2;P2;SDS_P1;SDS_P2;PMS_P1;PMS_P2;Temp;Humidity;BMP_temperature;BMP_pressure;BME280_temperature;BME280_humidity;BME280_pressure;Samples;Min_cycle;Max_cycle;Signal;HPM_P1;HPM_P2
2021/08/15 00:01:51;;;;;;;10.30;6.95;;;;;;;22.03;34.02;101368.06;2615550;54;20045;-70
2021/08/15 00:04:23;;;;;;;11.52;7.38;;;;;;;22.04;34.38;101364.22;2646470;36;20039;-70
2021/08/15 00:06:55;;;;;;;9.60;7.40;;;;;;;22.00;34.25;101359.22;2613254;54;20038;-70
2021/08/15 00:09:25;;;;;;;11.48;7.68;;;;;;;21.94;34.53;101355.28;2649263;36;20443;-70
2021/08/15 00:11:54;;;;;;;10.93;7.80;;;;;;;21.94;34.47;101355.28;2616350;54;20058;-70
2021/08/15 00:14:24;;;;;;;11.35;6.85;;;;;;;21.92;34.02;101362.13;2652410;36;20030;-70
2021/08/15 00:16:54;;;;;;;10.45;6.82;;;;;;;21.89;34.68;101363.38;2616422;54;20870;-70
2021/08/15 00:19:26;;;;;;;10.82;7.47;;;;;;;21.90;35.37;101361.47;2651732;36;20038;-70
2021/08/15 00:21:56;;;;;;;10.48;6.40;;;;;;;21.83;34.71;101359.44;2616829;39;20443;-71
2021/08/15 00:24:26;;;;;;;9.02;7.15;;;;;;;21.81;34.48;101353.22;2635676;36;20038;-70
2021/08/15 00:26:56;;;;;;;9.05;6.47;;;;;;;21.78;34.42;101359.16;2613519;54;20038;-70
2021/08/15 00:29:26;;;;;;;9.98;7.53;;;;;;;21.76;34.29;101352.91;2639251;36;20082;-71
2021/08/15 00:31:55;;;;;;;10.05;7.38;;;;;;;21.75;34.60;101348.41;2616442;54;20642;-69
2021/08/15 00:34:28;;;;;;;11.48;7.47;;;;;;;21.77;35.00;101351.00;2641979;36;20425;-69
2021/08/15 00:36:58;;;;;;;;;;;;;;;21.44;35.21;101345.81;2615484;54;20552;-70
2021/08/15 00:39:27;;;;;;;9.48;6.57;;;;;;;21.65;34.46;101347.88;2632729;36;19951;-70
2021/08/15 00:41:57;;;;;;;10.02;7.32;;;;;;;21.67;34.53;101342.94;2614932;54;20929;-71
2021/08/15 00:44:27;;;;;;;11.90;7.70;;;;;;;21.66;34.42;101343.13;2634153;36;20972;-70
2021/08/15 00:46:58;;;;;;;11.65;7.82;;;;;;;21.66;35.28;101343.13;2616059;54;20038;-70
2021/08/15 00:49:30;;;;;;;10.07;7.25;;;;;;;21.64;34.68;101348.06;2633037;36;20037;-70
2021/08/15 00:51:59;;;;;;;;;;;;;;;21.33;34.90;101339.84;2622176;36;20046;-70
2021/08/15 00:54:29;;;;;;;8.50;6.25;;;;;;;21.52;34.96;101343.97;2634374;36;20456;-70
2021/08/15 00:57:01;;;;;;;13.77;7.35;;;;;;;21.54;34.48;101339.09;2615290;54;20049;-71
2021/08/15 00:59:31;;;;;;;10.43;6.95;;;;;;;21.50;34.82;101334.94;2632312;36;20034;-70
2021/08/15 01:02:01;;;;;;;12.75;7.80;;;;;;;21.47;34.57;101330.66;2626722;36;20038;-70
2021/08/15 01:04:33;;;;;;;11.07;7.47;;;;;;;21.47;35.04;101327.88;2632546;36;20635;-70
2021/08/15 01:07:04;;;;;;;9.55;7.43;;;;;;;21.40;34.75;101322.22;2651098;36;20046;-71
2021/08/15 01:09:35;;;;;;;10.15;7.28;;;;;;;21.41;34.73;101320.28;2614587;54;20038;-70
2021/08/15 01:12:06;;;;;;;10.40;7.20;;;;;;;21.40;34.84;101315.78;2650510;36;20046;-70
2021/08/15 01:14:35;;;;;;;9.10;7.22;;;;;;;21.37;35.18;101316.16;2615076;54;20034;-70
2021/08/15 01:17:06;;;;;;;10.02;7.25;;;;;;;21.36;35.12;101320.00;2651335;36;20035;-70
2021/08/15 01:19:38;;;;;;;12.65;7.53;;;;;;;21.36;35.00;101320.88;2614630;47;20544;-69
2021/08/15 01:22:08;;;;;;;;;;;;;;;21.04;35.24;101310.09;2652501;36;20031;-70
2021/08/15 01:24:38;;;;;;;11.38;6.85;;;;;;;21.25;35.10;101304.63;2616446;39;20338;-70
2021/08/15 01:27:26;;;;;;;9.68;6.88;;;;;;;21.25;35.09;101298.19;2651698;36;20042;-70
2021/08/15 01:29:58;;;;;;;10.48;7.22;;;;;;;21.27;35.80;101294.19;2615905;54;20038;-70
2021/08/15 01:32:28;;;;;;;10.07;7.10;;;;;;;21.20;35.08;101287.66;2650922;36;20038;-70
2021/08/15 01:34:58;;;;;;;9.52;7.00;;;;;;;21.20;35.17;101284.03;2615414;54;20044;-72
2021/08/15 01:37:28;;;;;;;10.10;6.78;;;;;;;21.18;35.12;101292.56;2652567;36;20030;-70
2021/08/15 01:40:02;;;;;;;9.48;7.13;;;;;;;21.17;35.00;101289.94;2612875;47;20030;-71
2021/08/15 01:42:32;;;;;;;8.98;6.75;;;;;;;21.14;34.44;101291.22;2651726;36;20041;-70
2021/08/15 01:45:13;;;;;;;11.30;7.20;;;;;;;21.15;35.09;101290.16;2614659;54;20034;-70
2021/08/15 01:47:42;;;;;;;11.15;7.10;;;;;;;21.09;34.97;101290.91;2652879;36;20035;-70
2021/08/15 01:50:13;;;;;;;10.80;6.93;;;;;;;21.08;35.22;101283.63;2616246;54;20038;-70
2021/08/15 01:52:42;;;;;;;10.32;6.55;;;;;;;21.06;34.88;101285.75;2639686;36;20557;-70
2021/08/15 01:55:14;;;;;;;9.25;6.70;;;;;;;21.05;35.05;101281.25;2614206;54;20054;-70
2021/08/15 01:57:44;;;;;;;10.13;7.20;;;;;;;21.01;35.01;101280.75;2654570;36;20515;-70
2021/08/15 02:00:17;;;;;;;9.35;6.85;;;;;;;21.02;35.79;101276.91;2615425;54;20045;-70
2021/08/15 02:02:47;;;;;;;10.75;7.38;;;;;;;20.97;35.62;101279.41;2652676;36;20035;-70
2021/08/15 02:05:19;;;;;;;11.57;7.65;;;;;;;20.96;35.92;101274.03;2616179;54;20588;-70
2021/08/15 02:07:54;;;;;;;10.40;6.93;;;;;;;20.93;35.18;101275.28;2615745;54;20034;-71
2021/08/15 02:10:27;;;;;;;9.50;7.13;;;;;;;20.91;35.42;101280.16;2614649;51;20038;-69
2021/08/15 02:12:58;;;;;;;12.68;7.50;;;;;;;20.89;35.40;101279.50;2651178;36;20455;-71
2021/08/15 02:15:31;;;;;;;9.87;7.27;;;;;;;20.87;35.11;101269.56;2616438;54;20541;-70
2021/08/15 02:18:01;;;;;;;9.95;6.78;;;;;;;20.83;35.31;101277.41;2652878;36;20035;-71
2021/08/15 02:20:33;;;;;;;10.50;7.00;;;;;;;20.82;34.84;101272.94;2616226;54;20031;-71
2021/08/15 02:23:02;;;;;;;10.48;7.25;;;;;;;20.79;35.64;101276.09;2652775;36;20602;-71
2021/08/15 02:25:32;;;;;;;9.23;6.32;;;;;;;20.78;35.71;101274.38;2614605;47;20035;-71
2021/08/15 02:28:02;;;;;;;10.90;7.47;;;;;;;20.75;35.36;101271.13;2653221;36;20034;-70
2021/08/15 02:30:35;;;;;;;9.93;7.35;;;;;;;20.76;35.78;101273.69;2616947;54;20042;-70
2021/08/15 02:33:04;;;;;;;;;;;;;;;20.45;35.69;101265.47;2653467;36;20038;-71
2021/08/15 02:35:34;;;;;;;10.85;6.82;;;;;;;20.65;35.27;101263.91;2617127;54;19961;-70
2021/08/15 02:38:04;;;;;;;11.25;7.05;;;;;;;20.67;34.87;101264.56;2652600;36;20031;-71
2021/08/15 02:40:34;;;;;;;10.18;6.97;;;;;;;20.66;35.21;101262.00;2616795;39;20467;-70
2021/08/15 02:43:04;;;;;;;9.32;6.70;;;;;;;20.63;35.68;101254.88;2652036;36;20034;-70
2021/08/15 02:45:36;;;;;;;10.68;7.20;;;;;;;20.65;35.94;101249.13;2615408;54;20042;-70
2021/08/15 02:48:07;;;;;;;10.10;7.45;;;;;;;20.58;35.87;101246.22;2651449;36;20038;-70
2021/08/15 02:50:36;;;;;;;12.15;7.93;;;;;;;20.58;35.83;101248.19;2615627;54;20050;-70
2021/08/15 02:53:06;;;;;;;11.30;7.00;;;;;;;20.56;35.96;101251.13;2652342;36;20043;-71
2021/08/15 02:55:36;;;;;;;12.27;7.70;;;;;;;20.55;36.10;101249.41;2616951;54;20034;-70
2021/08/15 02:58:06;;;;;;;10.07;7.28;;;;;;;20.53;36.27;101239.53;2652749;36;20042;-71
2021/08/15 03:00:39;;;;;;;10.48;6.88;;;;;;;20.52;35.69;101240.56;2615743;54;20038;-70
2021/08/15 03:03:08;;;;;;;11.07;6.95;;;;;;;20.46;35.90;101239.41;2651696;36;20049;-70
2021/08/15 03:05:38;;;;;;;9.82;6.80;;;;;;;20.47;36.23;101232.81;2615501;54;20030;-70
2021/08/15 03:08:08;;;;;;;10.68;7.18;;;;;;;20.46;36.30;101235.78;2654086;36;20464;-70
2021/08/15 03:10:38;;;;;;;8.80;6.40;;;;;;;20.44;35.67;101235.09;2615817;54;20030;-70
2021/08/15 03:13:08;;;;;;;9.30;6.60;;;;;;;20.42;35.77;101234.44;2651292;36;20034;-70
2021/08/15 03:15:40;;;;;;;10.93;7.00;;;;;;;20.42;36.72;101221.38;2615468;54;20137;-70
2021/08/15 03:18:12;;;;;;;12.23;7.15;;;;;;;20.38;36.65;101224.72;2654449;36;20440;-70
2021/08/15 03:20:42;;;;;;;10.03;7.03;;;;;;;20.35;36.33;101225.09;2616311;54;20933;-70
2021/08/15 03:23:12;;;;;;;8.63;6.30;;;;;;;20.35;36.06;101217.63;2653357;36;20285;-70
2021/08/15 03:25:42;;;;;;;8.35;6.10;;;;;;;20.33;35.86;101213.31;2616102;47;20038;-70
2021/08/15 03:28:12;;;;;;;10.70;6.32;;;;;;;20.31;36.25;101208.81;2653284;36;20031;-69
2021/08/15 03:30:44;;;;;;;9.63;6.60;;;;;;;20.33;36.01;101221.66;2616727;54;20035;-70
2021/08/15 03:33:14;;;;;;;9.30;6.22;;;;;;;20.25;36.09;101214.28;2651962;36;20030;-70
2021/08/15 03:35:44;;;;;;;8.55;6.05;;;;;;;20.25;35.96;101209.53;2616474;54;20030;-70
2021/08/15 03:38:14;;;;;;;9.77;6.20;;;;;;;20.23;36.27;101205.25;2653255;36;20037;-70
2021/08/15 03:40:44;;;;;;;10.00;6.72;;;;;;;20.23;36.69;101216.38;2617401;54;20045;-70
2021/08/15 03:43:13;;;;;;;8.93;6.20;;;;;;;20.21;36.27;101210.13;2652590;36;20034;-70
2021/08/15 03:45:46;;;;;;;8.93;6.15;;;;;;;20.20;35.97;101205.59;2615830;54;20042;-70
2021/08/15 03:48:16;;;;;;;8.32;5.53;;;;;;;20.14;36.59;101206.34;2651121;36;20034;-70
2021/08/15 03:50:45;;;;;;;8.45;5.95;;;;;;;20.13;36.50;101204.59;2616864;54;20034;-70
2021/08/15 03:53:15;;;;;;;8.25;5.47;;;;;;;20.12;36.62;101202.88;2652258;36;20038;-70
2021/08/15 03:55:45;;;;;;;9.82;5.53;;;;;;;20.09;36.35;101192.16;2617236;54;20038;-70
2021/08/15 03:58:15;;;;;;;8.95;5.50;;;;;;;20.08;36.13;101193.22;2652887;36;20038;-70
2021/08/15 04:00:47;;;;;;;10.82;6.40;;;;;;;20.10;37.08;101185.53;2615881;54;20042;-70
2021/08/15 04:03:17;;;;;;;8.07;5.32;;;;;;;20.02;36.61;101178.13;2653722;36;20034;-71
2021/08/15 04:05:47;;;;;;;8.95;5.22;;;;;;;20.03;36.91;101184.56;2617051;54;20049;-71
2021/08/15 04:08:17;;;;;;;8.13;5.60;;;;;;;20.01;37.00;101184.72;2654747;36;20738;-70
2021/08/15 04:10:47;;;;;;;9.18;5.53;;;;;;;19.99;36.83;101189.63;2617008;54;20556;-70
2021/08/15 04:13:16;;;;;;;8.23;5.57;;;;;;;19.98;37.03;101185.13;2652297;36;20058;-70
2021/08/15 04:15:50;;;;;;;9.20;5.63;;;;;;;19.98;37.07;101193.47;2614661;54;20034;-69
2021/08/15 04:18:20;;;;;;;8.57;5.18;;;;;;;19.92;37.02;101192.25;2652582;36;20042;-70
2021/08/15 04:20:49;;;;;;;8.07;5.05;;;;;;;19.89;37.38;101187.09;2616972;54;20041;-71
2021/08/15 04:23:19;;;;;;;7.85;4.70;;;;;;;19.88;37.20;101188.16;2617351;54;20085;-71
2021/08/15 04:25:49;;;;;;;8.57;5.20;;;;;;;19.86;37.20;101193.00;2617059;54;20038;-70
2021/08/15 04:28:21;;;;;;;8.23;5.18;;;;;;;19.84;37.45;101192.31;2653621;36;20034;-72
2021/08/15 04:30:53;;;;;;;8.13;4.75;;;;;;;19.83;37.08;101187.00;2616091;47;20035;-72
2021/08/15 04:33:24;;;;;;;;;;;;;;;19.54;37.38;101188.56;2653669;36;20045;-71
2021/08/15 04:35:54;;;;;;;13.70;4.97;;;;;;;19.76;37.02;101195.16;2616922;54;19953;-72
2021/08/15 04:38:25;;;;;;;8.23;4.97;;;;;;;19.78;37.16;101197.75;2652840;36;20161;-69
2021/08/15 04:40:54;;;;;;;8.55;5.05;;;;;;;19.76;37.60;101194.34;2616741;54;20131;-71
2021/08/15 04:43:24;;;;;;;8.57;5.03;;;;;;;19.75;37.55;101193.47;2652376;36;20042;-71
2021/08/15 04:45:56;;;;;;;7.55;4.95;;;;;;;19.76;37.61;101191.56;2615728;54;20584;-71
2021/08/15 04:48:26;;;;;;;8.52;5.22;;;;;;;19.70;37.83;101190.34;2652736;36;20048;-70
2021/08/15 04:50:56;;;;;;;8.65;4.88;;;;;;;19.71;37.92;101188.44;2616125;47;20041;-69
2021/08/15 04:53:27;;;;;;;7.93;5.00;;;;;;;19.69;37.67;101180.31;2653312;36;20623;-69
2021/08/15 04:55:57;;;;;;;8.93;5.00;;;;;;;19.70;38.04;101195.03;2615922;47;20038;-69
2021/08/15 04:58:27;;;;;;;8.63;4.90;;;;;;;19.68;37.87;101197.16;2653163;36;20035;-70
2021/08/15 05:00:59;;;;;;;6.97;4.90;;;;;;;19.70;37.99;101189.50;2615579;54;20044;-69
2021/08/15 05:03:29;;;;;;;;;;;;;;;19.40;38.12;101186.53;2653708;36;20046;-69
2021/08/15 05:05:58;;;;;;;8.05;4.45;;;;;;;19.62;37.79;101182.09;2616678;47;20472;-70
2021/08/15 05:08:28;;;;;;;7.93;4.80;;;;;;;19.66;37.47;101179.81;2654209;36;20141;-70
2021/08/15 05:10:58;;;;;;;7.60;5.07;;;;;;;19.65;37.94;101176.19;2616746;47;20034;-70
2021/08/15 05:13:28;;;;;;;6.85;4.50;;;;;;;19.66;37.85;101189.03;2653699;36;20037;-70
2021/08/15 05:18:56;;;;;;;7.38;4.88;;;;;;;19.67;37.46;101193.53;2613799;54;20046;-69
2021/08/15 05:21:25;;;;;;;7.78;5.10;;;;;;;19.62;38.21;101187.63;2614303;54;20039;-70
2021/08/15 05:24:00;;;;;;;8.18;4.50;;;;;;;19.64;38.03;101193.00;2650148;36;20191;-69
2021/08/15 05:26:29;;;;;;;9.32;4.65;;;;;;;19.65;38.31;101192.84;2613907;54;20984;-69
2021/08/15 05:28:59;;;;;;;8.43;4.80;;;;;;;19.65;38.29;101184.50;2650542;36;20035;-70
2021/08/15 05:31:29;;;;;;;8.68;4.60;;;;;;;19.66;38.25;101188.16;2613986;54;20069;-69
2021/08/15 05:34:01;;;;;;;9.57;4.80;;;;;;;19.69;38.75;101194.19;2650176;36;20099;-69
2021/08/15 05:36:31;;;;;;;6.60;4.40;;;;;;;19.65;37.90;101189.19;2613434;54;20077;-70
2021/08/15 05:39:00;;;;;;;7.03;4.43;;;;;;;19.67;37.71;101187.97;2650189;36;20057;-70
2021/08/15 05:41:31;;;;;;;7.75;4.90;;;;;;;19.71;38.28;101185.66;2614156;54;20061;-69
2021/08/15 05:44:01;;;;;;;6.55;4.32;;;;;;;19.72;38.02;101190.19;2614156;54;20034;-70
2021/08/15 05:46:30;;;;;;;7.97;4.47;;;;;;;19.74;38.44;101177.84;2614407;54;20046;-69
2021/08/15 05:49:03;;;;;;;10.07;4.28;;;;;;;19.78;38.25;101175.56;2614052;54;20042;-69
2021/08/15 05:51:32;;;;;;;7.32;4.85;;;;;;;19.76;38.40;101183.22;2613937;54;20034;-70
2021/08/15 05:54:02;;;;;;;8.48;4.80;;;;;;;19.79;38.62;101177.28;2650208;36;20030;-69
2021/08/15 05:56:33;;;;;;;9.15;4.60;;;;;;;19.82;38.38;101180.56;2614052;54;20038;-69
2021/08/15 05:59:03;;;;;;;7.82;4.50;;;;;;;19.85;38.43;101182.09;2649874;36;20030;-69
2021/08/15 06:01:33;;;;;;;7.78;3.97;;;;;;;19.86;38.51;101183.81;2614005;54;20043;-69
2021/08/15 06:04:06;;;;;;;7.72;4.30;;;;;;;19.91;38.63;101184.16;2668001;36;20819;-71
2021/08/15 06:06:36;;;;;;;;;;;;;;;19.64;38.67;101185.56;2613391;54;20521;-70
2021/08/15 06:09:06;;;;;;;6.47;4.03;;;;;;;19.88;38.37;101177.03;2649719;36;19950;-70
2021/08/15 06:11:36;;;;;;;6.70;4.10;;;;;;;19.94;38.33;101184.63;2614133;54;20042;-68
2021/08/15 06:14:06;;;;;;;8.63;4.63;;;;;;;19.97;38.17;101172.28;2649530;36;20635;-70
2021/08/15 06:16:36;;;;;;;7.78;4.70;;;;;;;19.99;38.52;101172.97;2612863;54;20603;-69
2021/08/15 06:19:09;;;;;;;8.65;4.03;;;;;;;20.04;38.16;101169.63;2649938;36;20548;-70
2021/08/15 06:21:38;;;;;;;6.15;3.88;;;;;;;20.02;38.27;101171.72;2613774;54;20066;-68
2021/08/15 06:24:08;;;;;;;7.03;3.67;;;;;;;20.05;38.13;101165.78;2649697;36;20041;-70
2021/08/15 06:26:38;;;;;;;8.02;4.53;;;;;;;20.07;38.07;101158.16;2613655;54;20042;-70
2021/08/15 06:29:08;;;;;;;7.65;4.35;;;;;;;20.08;38.67;101157.97;2649567;36;20044;-68
2021/08/15 06:31:37;;;;;;;8.13;4.50;;;;;;;20.11;38.66;101152.03;2613577;54;20943;-68
2021/08/15 06:34:10;;;;;;;7.97;4.28;;;;;;;20.16;38.16;101148.69;2650066;36;20034;-70
2021/08/15 06:36:40;;;;;;;7.18;4.28;;;;;;;20.14;38.53;101153.56;2613829;54;20510;-69
2021/08/15 06:39:10;;;;;;;7.75;4.50;;;;;;;20.18;38.59;101141.88;2649873;36;20061;-69
2021/08/15 06:41:40;;;;;;;9.10;4.78;;;;;;;20.21;39.21;101143.47;2614269;54;20038;-68
2021/08/15 06:44:10;;;;;;;9.40;4.47;;;;;;;20.22;38.65;101143.28;2649789;36;20030;-70
2021/08/15 06:46:40;;;;;;;7.80;4.40;;;;;;;20.24;38.74;101149.50;2613431;54;20049;-69
2021/08/15 06:49:13;;;;;;;7.20;4.45;;;;;;;20.31;38.82;101149.63;2649342;36;20042;-71
2021/08/15 06:51:45;;;;;;;6.40;3.97;;;;;;;20.29;39.25;101147.00;2613963;54;20034;-69
2021/08/15 06:54:15;;;;;;;7.90;4.75;;;;;;;20.36;38.92;101151.81;2649550;36;20037;-70
2021/08/15 06:56:45;;;;;;;8.43;4.07;;;;;;;20.40;39.44;101156.81;2614005;54;20034;-70
2021/08/15 06:59:15;;;;;;;8.70;4.95;;;;;;;20.45;39.66;101151.53;2613901;54;20034;-72
2021/08/15 07:01:45;;;;;;;7.65;4.18;;;;;;;20.51;39.68;101136.88;2613538;39;20469;-70
2021/08/15 07:04:18;;;;;;;6.47;4.20;;;;;;;20.60;39.69;101143.19;2648883;36;20026;-69
2021/08/15 07:06:48;;;;;;;6.97;3.80;;;;;;;20.63;39.82;101140.06;2613408;54;20044;-70
2021/08/15 07:09:17;;;;;;;6.72;4.22;;;;;;;20.72;39.35;101129.69;2649499;36;20078;-70
2021/08/15 07:11:48;;;;;;;6.65;4.07;;;;;;;20.80;39.68;101141.59;2613688;39;20463;-70
2021/08/15 07:14:18;;;;;;;7.80;4.50;;;;;;;20.89;40.05;101132.13;2649468;36;20037;-70
2021/08/15 07:16:47;;;;;;;8.00;4.18;;;;;;;20.98;39.55;101139.31;2614485;54;20112;-68
2021/08/15 07:19:20;;;;;;;6.93;4.35;;;;;;;21.10;39.60;101136.88;2648693;36;20504;-64
2021/08/15 07:21:50;;;;;;;5.95;3.70;;;;;;;21.15;39.58;101137.16;2613569;54;20509;-64
2021/08/15 07:24:20;;;;;;;6.82;4.15;;;;;;;21.26;39.42;101138.56;2649367;36;20126;-64
2021/08/15 07:26:51;;;;;;;8.63;4.78;;;;;;;21.35;39.34;101140.16;2612428;54;20035;-64
2021/08/15 07:29:26;;;;;;;6.55;4.20;;;;;;;21.43;39.33;101146.47;2632492;36;20031;-64
2021/08/15 07:31:56;;;;;;;6.65;3.95;;;;;;;21.55;39.57;101141.25;2613165;54;20034;-64
2021/08/15 07:34:29;;;;;;;5.60;3.65;;;;;;;21.65;38.97;101133.47;2632175;36;20041;-63
2021/08/15 07:36:58;;;;;;;8.48;3.75;;;;;;;21.70;38.86;101124.53;2611531;54;20037;-63
2021/08/15 07:39:28;;;;;;;7.75;4.43;;;;;;;21.81;39.34;101130.44;2626860;36;20035;-64
2021/08/15 07:41:58;;;;;;;8.02;3.90;;;;;;;21.91;39.42;101131.97;2607751;54;20035;-64
2021/08/15 07:44:28;;;;;;;5.88;3.78;;;;;;;22.01;39.43;101118.59;2630539;36;20026;-64
2021/08/15 07:46:58;;;;;;;7.85;4.75;;;;;;;22.10;38.66;101107.09;2611881;39;20212;-64
2021/08/15 07:49:31;;;;;;;9.02;4.22;;;;;;;22.23;38.78;101117.53;2629768;36;20835;-66
2021/08/15 07:52:00;;;;;;;8.15;4.55;;;;;;;22.30;38.97;101114.78;2624162;36;20045;-65
2021/08/15 07:54:31;;;;;;;8.68;4.20;;;;;;;22.40;38.79;101116.13;2629643;36;20031;-65
2021/08/15 07:57:01;;;;;;;7.03;3.75;;;;;;;22.49;38.58;101105.69;2625925;36;20034;-64
2021/08/15 07:59:30;;;;;;;6.82;3.88;;;;;;;22.59;38.54;101103.38;2629960;36;20041;-65
2021/08/15 08:02:00;;;;;;;7.28;3.90;;;;;;;22.68;38.80;101109.66;2621281;36;20039;-65
2021/08/15 08:04:33;;;;;;;7.55;3.97;;;;;;;22.79;38.05;101104.38;2630213;36;20548;-64
2021/08/15 08:07:03;;;;;;;7.30;3.58;;;;;;;22.84;38.75;101101.84;2644721;36;20424;-65
2021/08/15 08:09:34;;;;;;;6.13;3.80;;;;;;;22.94;38.22;101096.75;2611396;54;20170;-65
2021/08/15 08:12:04;;;;;;;5.47;3.33;;;;;;;23.06;38.41;101104.50;2649147;36;20057;-63
2021/08/15 08:14:34;;;;;;;6.35;3.40;;;;;;;23.14;38.51;101098.72;2611145;54;20038;-64
2021/08/15 08:17:04;;;;;;;5.97;3.30;;;;;;;23.23;38.10;101095.53;2649019;36;20523;-65
2021/08/15 08:19:36;;;;;;;6.00;3.58;;;;;;;23.37;38.17;101095.59;2611352;54;20038;-65
2021/08/15 08:22:07;;;;;;;6.55;3.58;;;;;;;23.42;37.76;101088.28;2647359;36;20582;-64
2021/08/15 08:24:36;;;;;;;6.78;3.33;;;;;;;23.50;37.82;101088.13;2609021;54;20050;-64
2021/08/15 08:27:07;;;;;;;5.72;3.05;;;;;;;23.59;37.63;101077.63;2648559;36;20441;-64
2021/08/15 08:29:36;;;;;;;6.70;3.50;;;;;;;23.67;37.55;101075.47;2610226;54;20045;-65
2021/08/15 08:32:07;;;;;;;4.70;2.92;;;;;;;23.77;37.39;101079.78;2645418;36;20062;-65
2021/08/15 08:34:39;;;;;;;7.07;3.33;;;;;;;23.88;37.25;101096.75;2610313;54;20060;-65
2021/08/15 08:37:09;;;;;;;5.28;3.05;;;;;;;23.94;37.34;101081.09;2647066;36;20622;-65
2021/08/15 08:39:39;;;;;;;5.05;3.13;;;;;;;24.01;37.17;101087.53;2609721;54;20077;-65
2021/08/15 08:42:09;;;;;;;6.28;2.95;;;;;;;24.08;36.74;101077.22;2647320;36;20041;-65
2021/08/15 08:44:39;;;;;;;5.35;3.03;;;;;;;24.13;36.87;101084.94;2609648;54;20039;-64
2021/08/15 08:47:11;;;;;;;5.60;3.00;;;;;;;24.20;36.44;101089.50;2646738;36;20174;-65
2021/08/15 08:49:44;;;;;;;5.75;3.00;;;;;;;24.25;36.34;101088.81;2608898;39;20402;-65
2021/08/15 08:52:14;;;;;;;5.55;3.10;;;;;;;24.25;36.36;101098.06;2648749;36;20045;-64
2021/08/15 08:54:44;;;;;;;6.60;2.97;;;;;;;24.28;36.28;101080.00;2612023;54;20065;-65
2021/08/15 08:57:13;;;;;;;4.57;2.83;;;;;;;24.30;36.20;101075.03;2648721;36;20062;-65
2021/08/15 08:59:43;;;;;;;5.38;3.08;;;;;;;24.31;36.31;101076.75;2612171;54;20845;-65
2021/08/15 09:02:14;;;;;;;6.93;3.35;;;;;;;24.34;35.87;101076.34;2645633;36;20596;-66
2021/08/15 09:04:46;;;;;;;6.13;2.70;;;;;;;24.36;35.81;101069.47;2610338;54;20763;-64
2021/08/15 09:07:18;;;;;;;5.45;2.97;;;;;;;24.36;35.78;101082.59;2647550;36;20045;-68
2021/08/15 09:09:56;;;;;;;5.32;3.22;;;;;;;24.38;36.22;101084.06;2610831;54;20046;-66
2021/08/15 09:12:37;;;;;;;6.43;2.83;;;;;;;24.40;35.83;101083.84;2648723;36;20034;-65
2021/08/15 09:15:16;;;;;;;4.70;2.60;;;;;;;24.41;35.65;101079.97;2611181;54;20514;-65
2021/08/15 09:17:47;;;;;;;6.95;3.20;;;;;;;24.39;36.05;101083.00;2648166;36;20547;-65
2021/08/15 09:20:25;;;;;;;4.47;2.57;;;;;;;24.42;35.70;101070.50;2611517;54;20034;-65
2021/08/15 09:22:55;;;;;;;5.60;2.78;;;;;;;24.40;35.84;101072.66;2648717;36;20540;-64
2021/08/15 09:25:27;;;;;;;5.28;3.05;;;;;;;24.44;36.04;101071.16;2611677;54;20042;-65
2021/08/15 09:28:02;;;;;;;6.57;2.85;;;;;;;24.43;36.03;101075.91;2648761;36;20619;-65
2021/08/15 09:30:32;;;;;;;4.63;2.67;;;;;;;24.46;35.99;101066.19;2611335;54;20126;-65
2021/08/15 09:33:04;;;;;;;5.13;2.88;;;;;;;24.50;36.21;101055.44;2648170;36;20035;-66
2021/08/15 09:35:41;;;;;;;4.35;2.80;;;;;;;24.53;36.09;101058.66;2611350;54;20034;-66
2021/08/15 09:38:15;;;;;;;5.97;3.00;;;;;;;24.57;35.71;101048.75;2647781;36;20073;-65
2021/08/15 09:40:47;;;;;;;5.90;2.65;;;;;;;24.60;35.95;101053.03;2612637;46;20102;-65
2021/08/15 09:43:20;;;;;;;4.95;2.65;;;;;;;24.62;35.90;101051.72;2648197;36;20042;-65
2021/08/15 09:45:51;;;;;;;4.90;2.38;;;;;;;24.66;35.72;101053.03;2611696;54;20072;-66
2021/08/15 09:48:27;;;;;;;4.43;2.57;;;;;;;24.70;36.07;101056.28;2647693;36;20315;-65
2021/08/15 09:51:22;;;;;;;4.03;2.03;;;;;;;24.75;35.74;101048.06;2611569;39;20683;-65
2021/08/15 09:54:02;;;;;;;4.10;2.30;;;;;;;24.84;35.68;101038.34;2647561;36;20660;-66
2021/08/15 09:56:34;;;;;;;5.38;2.88;;;;;;;24.90;36.05;101040.25;2612115;54;20030;-65
2021/08/15 09:59:15;;;;;;;4.75;2.53;;;;;;;24.97;35.96;101052.25;2645980;36;20039;-65
2021/08/15 10:01:46;;;;;;;4.30;2.38;;;;;;;25.03;35.87;101044.94;2612382;54;20038;-65
2021/08/15 10:04:17;;;;;;;5.00;2.40;;;;;;;25.08;35.83;101043.16;2647943;36;20038;-65
2021/08/15 10:06:54;;;;;;;4.75;2.35;;;;;;;25.23;35.85;101042.00;2612272;39;20427;-65
2021/08/15 10:09:25;;;;;;;5.07;2.45;;;;;;;25.27;35.66;101027.38;2647701;36;20026;-66
2021/08/15 10:11:55;;;;;;;3.67;1.90;;;;;;;25.32;35.25;101033.16;2612183;54;20039;-65
2021/08/15 10:14:26;;;;;;;4.13;2.17;;;;;;;25.40;34.83;101027.28;2638666;36;20041;-66
2021/08/15 10:17:00;;;;;;;5.07;2.38;;;;;;;25.48;34.87;101024.19;2611453;54;20034;-65
2021/08/15 10:19:35;;;;;;;4.15;2.10;;;;;;;25.56;34.79;101026.72;2629433;36;20037;-66
2021/08/15 10:22:09;;;;;;;3.65;1.80;;;;;;;25.63;34.44;101015.44;2648304;36;20035;-66
2021/08/15 10:24:47;;;;;;;4.07;1.98;;;;;;;25.69;34.42;101019.31;2611545;54;20042;-67
2021/08/15 10:27:45;;;;;;;3.85;2.30;;;;;;;25.72;34.32;101018.81;2648447;36;20042;-66
2021/08/15 10:30:45;;;;;;;4.80;2.03;;;;;;;25.74;33.96;101006.31;2611781;39;20413;-66
2021/08/15 10:33:19;;;;;;;3.70;1.90;;;;;;;25.79;33.81;101014.03;2648180;36;20035;-67
2021/08/15 10:36:31;;;;;;;3.83;1.98;;;;;;;25.86;34.34;101020.44;2611427;54;20045;-65
2021/08/15 10:39:04;;;;;;;5.47;2.13;;;;;;;25.87;33.72;101017.41;2647083;36;20038;-66
2021/08/15 10:41:52;;;;;;;4.30;2.00;;;;;;;25.93;33.96;101010.91;2611498;54;20045;-67
2021/08/15 10:44:23;;;;;;;4.32;2.10;;;;;;;25.97;34.30;101010.44;2647309;36;20786;-66
2021/08/15 10:47:15;;;;;;;6.38;2.28;;;;;;;26.03;33.79;101001.97;2611542;39;20456;-66
2021/08/15 10:49:53;;;;;;;7.15;2.58;;;;;;;26.07;33.28;101002.38;2539671;54;2004161;-67
2021/08/15 10:52:45;;;;;;;5.50;2.10;;;;;;;26.06;33.26;101001.50;2649082;36;20541;-66
2021/08/15 10:55:19;;;;;;;4.18;2.05;;;;;;;26.10;32.70;100991.53;2612708;54;20559;-66
2021/08/15 10:57:58;;;;;;;4.40;1.92;;;;;;;26.14;32.12;101000.34;2648652;36;20039;-65
2021/08/15 11:00:45;;;;;;;4.70;2.20;;;;;;;26.10;32.24;100993.50;2612647;54;20038;-67
2021/08/15 11:03:31;;;;;;;3.88;2.00;;;;;;;26.09;32.19;100991.78;2648781;36;20356;-65
2021/08/15 11:06:02;;;;;;;4.50;2.10;;;;;;;26.06;32.39;100990.28;2611778;49;20042;-66
2021/08/15 11:08:53;;;;;;;3.65;1.90;;;;;;;26.08;32.19;100979.72;2648651;36;20030;-65
2021/08/15 11:11:30;;;;;;;3.58;1.88;;;;;;;26.09;31.12;100980.56;2611780;54;20038;-65
2021/08/15 11:14:30;;;;;;;3.85;2.00;;;;;;;26.08;31.07;100984.47;2649591;36;20291;-65
2021/08/15 11:17:14;;;;;;;4.45;1.80;;;;;;;26.08;30.80;100978.84;2621214;36;20653;-67
2021/08/15 11:19:45;;;;;;;3.92;2.10;;;;;;;26.05;31.39;100980.16;2576283;46;2005283;-66
2021/08/15 11:22:18;;;;;;;4.32;2.10;;;;;;;26.08;30.46;100981.66;2650590;36;20575;-67
2021/08/15 11:24:54;;;;;;;3.53;1.70;;;;;;;26.07;29.77;100975.19;2615442;54;20037;-66
2021/08/15 11:27:37;;;;;;;3.15;1.83;;;;;;;26.06;30.37;100970.66;2651522;36;20053;-66
2021/08/15 11:30:18;;;;;;;3.42;1.80;;;;;;;26.04;29.99;100980.38;2614116;54;20038;-64
2021/08/15 11:32:53;;;;;;;3.47;2.00;;;;;;;26.02;30.12;100975.00;2651809;36;20035;-66
2021/08/15 11:35:24;;;;;;;4.07;1.90;;;;;;;25.98;30.17;100978.53;2614384;54;20041;-66
2021/08/15 11:37:56;;;;;;;3.95;1.85;;;;;;;25.98;30.75;100970.13;2650980;36;20026;-66
2021/08/15 11:40:28;;;;;;;3.88;1.95;;;;;;;25.97;30.64;100962.78;2614694;54;20039;-64
2021/08/15 11:43:04;;;;;;;4.32;1.70;;;;;;;25.94;30.43;100962.16;2650863;36;20045;-66
2021/08/15 11:45:37;;;;;;;3.58;1.85;;;;;;;25.96;30.59;100955.47;2614786;54;20084;-66
2021/08/15 11:48:14;;;;;;;3.75;1.77;;;;;;;25.98;30.57;100954.16;2650753;36;20038;-66
2021/08/15 11:50:46;;;;;;;4.28;2.05;;;;;;;25.97;30.88;100948.78;2612537;54;20034;-65